createdAt,value
2023-01-17T00:02:18.796Z,122.40
2023-01-17T00:05:05.275Z,118.00
2023-01-17T00:07:51.320Z,126.22
2023-01-17T00:10:24.809Z,123.30
2023-01-17T00:12:59.901Z,123.57
2023-01-17T00:15:30.850Z,125.38
2023-01-17T00:17:58.698Z,121.38
2023-01-17T00:20:48.477Z,117.55
2023-01-17T00:23:43.715Z,118.20
2023-01-17T00:26:21.189Z,125.88
2023-01-17T00:28:48.953Z,115.63
2023-01-17T00:31:16.895Z,117.40
2023-01-17T00:33:43.947Z,109.60
2023-01-17T00:36:12.113Z,116.50
2023-01-17T00:38:40.238Z,119.20
2023-01-17T00:41:13.898Z,109.72
2023-01-17T00:43:59.874Z,131.43
2023-01-17T00:46:45.344Z,120.40
2023-01-17T00:49:31.133Z,123.90
2023-01-17T00:52:16.790Z,125.82
2023-01-17T00:55:02.757Z,133.93
2023-01-17T00:57:48.914Z,109.53
2023-01-17T01:00:37.546Z,116.40
2023-01-17T01:03:30.790Z,116.72
2023-01-17T01:06:16.304Z,116.28
2023-01-17T01:09:02.071Z,107.57
2023-01-17T01:11:47.676Z,106.97
2023-01-17T01:14:33.117Z,103.53
2023-01-17T01:17:18.782Z,116.18
2023-01-17T01:20:04.837Z,114.43
2023-01-17T01:22:50.476Z,118.45
2023-01-17T01:25:35.897Z,137.63
2023-01-17T01:28:29.791Z,133.40
2023-01-17T01:31:19.082Z,125.40
2023-01-17T01:33:46.101Z,134.77
2023-01-17T01:36:13.251Z,139.45
2023-01-17T01:38:40.254Z,111.00
2023-01-17T01:41:07.285Z,120.93
2023-01-17T01:43:47.728Z,116.22
2023-01-17T01:46:35.543Z,113.25
2023-01-17T01:49:28.355Z,116.00
2023-01-17T01:52:00.207Z,124.38
2023-01-17T01:55:00.380Z,137.77
2023-01-17T01:57:34.902Z,122.88
2023-01-17T02:00:24.877Z,123.18
2023-01-17T02:02:57.097Z,114.93
2023-01-17T02:05:28.715Z,141.68
2023-01-17T02:08:07.760Z,193.60
2023-01-17T02:10:44.296Z,117.35
2023-01-17T02:13:15.827Z,124.00
2023-01-17T02:16:14.043Z,104.50
2023-01-17T02:19:20.726Z,119.00
2023-01-17T02:22:12.793Z,129.40
2023-01-17T02:25:06.011Z,144.00
2023-01-17T02:27:52.559Z,120.10
2023-01-17T02:30:22.142Z,122.70
2023-01-17T02:33:16.517Z,129.02
2023-01-17T02:36:22.979Z,138.00
2023-01-17T02:38:58.116Z,129.30
2023-01-17T02:41:35.083Z,119.00
2023-01-17T02:44:03.687Z,123.10
2023-01-17T02:46:31.445Z,110.40
2023-01-17T02:49:00.350Z,114.57
2023-01-17T02:51:52.651Z,116.97
2023-01-17T02:54:39.824Z,115.85
2023-01-17T02:57:28.483Z,111.60
2023-01-17T03:00:28.386Z,124.20
2023-01-17T03:03:05.858Z,106.25
2023-01-17T03:05:50.424Z,107.85
2023-01-17T03:10:45.989Z,109.20
2023-01-17T03:13:13.055Z,123.35
2023-01-17T03:15:41.286Z,114.32
2023-01-17T03:18:14.722Z,121.10
2023-01-17T03:20:42.129Z,132.40
2023-01-17T03:23:09.345Z,142.57
2023-01-17T03:25:36.740Z,140.05
2023-01-17T03:28:04.432Z,129.02
2023-01-17T03:30:31.705Z,129.75
2023-01-17T03:32:58.727Z,111.43
2023-01-17T03:35:25.748Z,104.75
2023-01-17T03:37:52.753Z,96.75
2023-01-17T03:40:19.889Z,99.20
2023-01-17T03:42:46.920Z,96.35
2023-01-17T03:45:14.028Z,96.28
2023-01-17T03:47:40.914Z,98.18
2023-01-17T03:50:08.866Z,99.43
2023-01-17T03:52:35.815Z,92.47
2023-01-17T03:55:02.854Z,105.55
2023-01-17T03:57:30.004Z,92.53
2023-01-17T03:59:57.885Z,100.80
2023-01-17T04:02:25.968Z,102.80
2023-01-17T04:04:53.021Z,116.88
2023-01-17T04:07:20.536Z,98.38
2023-01-17T04:09:47.503Z,84.45
2023-01-17T04:12:14.803Z,124.05
2023-01-17T04:14:41.806Z,110.30
2023-01-17T04:17:13.276Z,88.80
2023-01-17T04:19:41.196Z,89.03
2023-01-17T04:22:08.770Z,102.40
2023-01-17T04:24:36.065Z,93.55
2023-01-17T04:27:05.108Z,102.68
2023-01-17T04:29:32.736Z,104.72
2023-01-17T04:31:59.694Z,105.43
2023-01-17T04:34:27.130Z,95.85
2023-01-17T04:36:54.150Z,93.78
2023-01-17T04:39:21.134Z,95.07
2023-01-17T04:41:48.248Z,93.15
2023-01-17T04:44:16.431Z,102.20
2023-01-17T04:46:43.375Z,94.88
2023-01-17T04:49:10.428Z,80.90
2023-01-17T04:51:37.342Z,92.75
2023-01-17T04:54:04.455Z,94.20
2023-01-17T04:56:31.357Z,92.50
2023-01-17T04:58:58.939Z,85.85
2023-01-17T05:01:26.678Z,82.38
2023-01-17T05:03:53.692Z,101.80
2023-01-17T05:06:20.652Z,87.65
2023-01-17T05:08:47.624Z,100.60
2023-01-17T05:11:14.876Z,94.22
2023-01-17T05:13:42.124Z,92.70
2023-01-17T05:16:09.158Z,81.78
2023-01-17T05:18:36.296Z,94.35
2023-01-17T05:21:04.425Z,76.70
2023-01-17T05:23:32.448Z,106.07
2023-01-17T05:25:59.774Z,90.22
2023-01-17T05:28:26.974Z,98.47
2023-01-17T05:30:53.999Z,92.82
2023-01-17T05:33:21.091Z,92.47
2023-01-17T05:35:48.062Z,127.78
2023-01-17T05:38:15.035Z,92.38
2023-01-17T05:40:42.012Z,86.95
2023-01-17T05:43:09.113Z,84.35
2023-01-17T05:45:36.382Z,83.53
2023-01-17T05:48:04.351Z,108.53
2023-01-17T05:50:35.641Z,107.65
2023-01-17T05:53:15.402Z,106.50
2023-01-17T05:55:42.955Z,109.47
2023-01-17T05:58:20.978Z,174.73
2023-01-17T06:00:52.569Z,120.50
2023-01-17T06:03:22.223Z,122.32
2023-01-17T06:05:50.229Z,109.97
2023-01-17T06:08:17.325Z,96.32
2023-01-17T06:10:44.195Z,90.18
2023-01-17T06:13:15.333Z,112.95
2023-01-17T06:15:42.679Z,90.18
2023-01-17T06:18:13.095Z,102.65
2023-01-17T06:20:41.904Z,113.35
2023-01-17T06:23:12.662Z,115.88
2023-01-17T06:25:45.206Z,111.88
2023-01-17T06:28:18.973Z,107.50
2023-01-17T06:30:46.785Z,116.88
2023-01-17T06:33:14.527Z,118.10
2023-01-17T06:35:53.328Z,123.55
2023-01-17T06:38:21.120Z,123.70
2023-01-17T06:40:49.200Z,120.88
2023-01-17T06:43:19.118Z,114.68
2023-01-17T06:45:46.221Z,181.77
2023-01-17T06:48:13.391Z,135.50
2023-01-17T06:50:40.385Z,148.27
2023-01-17T06:53:07.975Z,129.48
2023-01-17T06:55:37.265Z,122.13
2023-01-17T06:58:04.183Z,161.23
2023-01-17T07:00:35.003Z,113.75
2023-01-17T07:03:02.859Z,131.60
2023-01-17T07:05:29.833Z,135.07
2023-01-17T07:07:57.820Z,145.50
2023-01-17T07:10:24.741Z,145.25
2023-01-17T07:12:51.687Z,148.80
2023-01-17T07:15:18.689Z,132.45
2023-01-17T07:17:45.712Z,154.35
2023-01-17T07:20:13.920Z,137.43
2023-01-17T07:22:45.487Z,147.85
2023-01-17T07:25:12.929Z,149.23
2023-01-17T07:27:39.956Z,138.02
2023-01-17T07:30:07.731Z,143.60
2023-01-17T07:32:35.368Z,139.50
2023-01-17T07:35:02.324Z,143.95
2023-01-17T07:37:29.345Z,158.07
2023-01-17T07:39:56.379Z,175.20
2023-01-17T07:42:24.520Z,151.35
2023-01-17T07:44:51.519Z,167.82
2023-01-17T07:47:18.542Z,173.52
2023-01-17T07:49:45.609Z,174.00
2023-01-17T07:52:12.615Z,174.80
2023-01-17T07:54:39.670Z,153.95
2023-01-17T07:57:12.452Z,182.98
2023-01-17T07:59:40.387Z,166.30
2023-01-17T08:02:17.721Z,154.60
2023-01-17T08:04:45.335Z,159.75
2023-01-17T08:07:14.008Z,176.18
2023-01-17T08:09:42.314Z,177.90
2023-01-17T08:12:10.329Z,162.65
2023-01-17T08:14:37.291Z,165.98
2023-01-17T08:17:11.489Z,163.50
2023-01-17T08:19:38.948Z,179.23
2023-01-17T08:22:06.342Z,188.10
2023-01-17T08:24:33.899Z,172.13
2023-01-17T08:27:00.855Z,174.32
2023-01-17T08:29:28.180Z,175.52
2023-01-17T08:31:55.793Z,146.20
2023-01-17T08:34:23.830Z,182.55
2023-01-17T08:36:53.897Z,176.40
2023-01-17T08:39:22.167Z,149.85
2023-01-17T08:41:49.440Z,136.02
2023-01-17T08:44:16.548Z,140.00
2023-01-17T08:46:47.208Z,127.80
2023-01-17T08:49:14.338Z,124.43
2023-01-17T08:51:41.551Z,108.00
2023-01-17T08:54:11.914Z,104.80
2023-01-17T08:56:39.527Z,102.72
2023-01-17T08:59:06.729Z,94.75
2023-01-17T09:01:40.792Z,102.53
2023-01-17T09:06:45.451Z,104.82
2023-01-17T09:09:13.646Z,103.57
2023-01-17T09:11:40.641Z,106.63
2023-01-17T09:14:07.734Z,95.55
2023-01-17T09:16:34.932Z,87.32
2023-01-17T09:19:01.995Z,70.60
2023-01-17T09:21:29.020Z,82.03
2023-01-17T09:23:56.371Z,70.95
2023-01-17T09:26:29.282Z,78.53
2023-01-17T09:28:56.501Z,67.13
2023-01-17T09:31:24.590Z,74.63
2023-01-17T09:33:53.230Z,69.47
2023-01-17T09:36:22.213Z,78.03
2023-01-17T09:38:49.556Z,74.78
2023-01-17T09:41:29.164Z,74.43
2023-01-17T09:44:23.782Z,72.45
2023-01-17T09:46:55.279Z,69.40
2023-01-17T09:49:45.518Z,68.18
2023-01-17T09:52:17.874Z,76.45
2023-01-17T09:54:48.575Z,70.88
2023-01-17T09:57:54.762Z,81.18
2023-01-17T10:00:34.128Z,70.75
2023-01-17T10:03:32.099Z,49.40
2023-01-17T10:06:28.257Z,41.95
2023-01-17T10:09:25.250Z,33.20
2023-01-17T10:12:16.351Z,41.05
2023-01-17T10:15:39.968Z,45.47
2023-01-17T10:18:30.421Z,34.72
2023-01-17T10:21:23.985Z,42.45
2023-01-17T10:24:22.290Z,43.00
2023-01-17T10:26:56.340Z,39.65
2023-01-17T10:29:30.160Z,38.55
2023-01-17T10:32:02.750Z,40.05
2023-01-17T10:34:51.604Z,41.65
2023-01-17T10:37:31.647Z,42.90
2023-01-17T10:40:24.936Z,44.15
2023-01-17T10:43:15.033Z,39.05
2023-01-17T10:45:53.870Z,41.17
2023-01-17T10:48:37.466Z,37.05
2023-01-17T10:51:26.719Z,40.33
2023-01-17T10:54:19.136Z,42.63
2023-01-17T10:56:46.319Z,35.47
2023-01-17T10:59:25.052Z,40.80
2023-01-17T11:01:52.293Z,35.60
2023-01-17T11:04:38.129Z,36.15
2023-01-17T11:07:14.192Z,39.20
2023-01-17T11:09:53.774Z,39.83
2023-01-17T11:12:31.028Z,46.13
2023-01-17T11:15:02.667Z,42.08
2023-01-17T11:17:31.467Z,37.95
2023-01-17T11:20:37.040Z,44.65
2023-01-17T11:23:14.646Z,43.53
2023-01-17T11:25:50.377Z,42.42
2023-01-17T11:28:26.455Z,46.50
2023-01-17T11:30:57.475Z,43.20
2023-01-17T11:33:45.928Z,45.05
2023-01-17T11:36:22.988Z,47.80
2023-01-17T11:39:22.037Z,44.35
2023-01-17T11:41:49.187Z,45.85
2023-01-17T11:44:27.705Z,45.47
2023-01-17T11:47:13.107Z,48.22
2023-01-17T11:49:50.097Z,49.65
2023-01-17T11:52:32.953Z,43.25
2023-01-17T11:55:00.203Z,45.58
2023-01-17T11:57:30.219Z,47.00
2023-01-17T12:00:24.436Z,40.95
2023-01-17T12:03:11.348Z,37.50
2023-01-17T12:05:44.740Z,30.75
2023-01-17T12:08:32.867Z,26.40
2023-01-17T12:11:05.997Z,23.20
2023-01-17T12:14:10.303Z,23.25
2023-01-17T12:17:43.794Z,23.48
2023-01-17T12:20:38.511Z,23.40
2023-01-17T12:23:33.789Z,22.00
2023-01-17T12:26:30.394Z,19.20
2023-01-17T12:29:31.180Z,21.65
2023-01-17T12:32:48.179Z,19.58
2023-01-17T12:35:24.549Z,23.27
2023-01-17T12:38:05.299Z,25.88
2023-01-17T12:40:54.136Z,28.58
2023-01-17T12:43:38.099Z,20.73
2023-01-17T12:46:21.353Z,23.10
2023-01-17T12:48:55.558Z,22.88
2023-01-17T12:51:29.389Z,17.00
2023-01-17T12:54:50.595Z,14.85
2023-01-17T12:57:25.749Z,9.10
2023-01-17T13:00:19.677Z,8.05
2023-01-17T13:03:12.417Z,9.68
2023-01-17T13:05:46.770Z,8.68
2023-01-17T13:08:22.389Z,7.53
2023-01-17T13:11:23.334Z,5.13
2023-01-17T13:13:52.328Z,6.38
2023-01-17T13:16:36.451Z,7.82
2023-01-17T13:19:33.682Z,6.95
2023-01-17T13:22:06.572Z,7.95
2023-01-17T13:24:58.680Z,11.02
2023-01-17T13:27:53.295Z,6.30
2023-01-17T13:30:57.746Z,8.88
2023-01-17T13:33:35.554Z,8.75
2023-01-17T13:36:40.214Z,6.75
2023-01-17T13:39:52.046Z,7.95
2023-01-17T13:42:56.059Z,6.75
2023-01-17T13:45:31.967Z,5.50
2023-01-17T13:48:17.192Z,8.18
2023-01-17T13:50:53.076Z,7.13
2023-01-17T13:53:29.155Z,6.00
2023-01-17T13:56:31.389Z,5.50
2023-01-17T13:59:04.979Z,9.98
2023-01-17T14:01:32.382Z,7.60
2023-01-17T14:04:06.308Z,7.22
2023-01-17T14:06:35.557Z,7.05
2023-01-17T14:09:13.420Z,11.23
2023-01-17T14:11:52.926Z,5.95
2023-01-17T14:14:44.451Z,9.73
2023-01-17T14:17:15.482Z,7.30
2023-01-17T14:19:48.609Z,8.30
2023-01-17T14:22:18.567Z,6.68
2023-01-17T14:25:12.145Z,8.25
2023-01-17T14:27:42.151Z,8.40
2023-01-17T14:30:26.392Z,7.22
2023-01-17T14:32:59.145Z,6.53
2023-01-17T14:35:33.121Z,7.80
2023-01-17T14:38:05.617Z,8.05
2023-01-17T14:40:38.201Z,5.40
2023-01-17T14:43:12.527Z,6.20
2023-01-17T14:45:40.331Z,20.45
2023-01-17T14:48:19.043Z,18.45
2023-01-17T14:50:49.326Z,8.85
2023-01-17T14:53:20.997Z,8.50
2023-01-17T14:55:47.914Z,11.15
2023-01-17T14:58:36.395Z,11.23
2023-01-17T15:01:20.067Z,8.52
2023-01-17T15:03:54.096Z,14.27
2023-01-17T15:06:33.897Z,15.95
2023-01-17T15:09:01.181Z,15.13
2023-01-17T15:11:33.599Z,15.50
2023-01-17T15:14:05.871Z,20.38
2023-01-17T15:16:37.192Z,20.95
2023-01-17T15:19:13.315Z,20.15
2023-01-17T15:21:43.166Z,20.45
2023-01-17T15:24:20.625Z,32.33
2023-01-17T15:26:48.343Z,24.77
2023-01-17T15:29:25.528Z,23.70
2023-01-17T15:32:02.202Z,24.38
2023-01-17T15:34:33.185Z,20.95
2023-01-17T15:37:29.723Z,21.15
2023-01-17T15:40:24.116Z,20.75
2023-01-17T15:42:57.213Z,21.10
2023-01-17T15:45:29.948Z,21.67
2023-01-17T15:47:59.271Z,21.65
2023-01-17T15:50:38.633Z,22.15
2023-01-17T15:53:31.642Z,21.52
2023-01-17T15:55:59.784Z,22.80
2023-01-17T15:58:30.387Z,24.35
2023-01-17T16:00:57.845Z,26.02
2023-01-17T16:03:30.659Z,25.00
2023-01-17T16:06:00.744Z,27.45
2023-01-17T16:08:38.768Z,26.33
2023-01-17T16:11:08.154Z,24.55
2023-01-17T16:13:39.292Z,25.42
2023-01-17T16:16:22.549Z,21.55
2023-01-17T16:18:59.070Z,23.48
2023-01-17T16:21:29.816Z,21.17
2023-01-17T16:23:57.094Z,25.55
2023-01-17T16:26:24.436Z,24.02
2023-01-17T16:28:51.924Z,22.05
2023-01-17T16:31:19.271Z,21.27
2023-01-17T16:33:50.715Z,24.92
2023-01-17T16:36:22.939Z,20.45
2023-01-17T16:38:52.440Z,23.65
2023-01-17T16:41:21.075Z,24.05
2023-01-17T16:43:59.342Z,23.23
2023-01-17T16:46:27.685Z,25.20
2023-01-17T16:48:55.703Z,26.45
2023-01-17T16:51:22.731Z,24.70
2023-01-17T16:53:50.057Z,26.15
2023-01-17T16:56:19.013Z,22.42
2023-01-17T16:58:46.671Z,22.40
2023-01-17T17:01:17.923Z,23.38
2023-01-17T17:03:46.449Z,23.77
2023-01-17T17:06:15.099Z,21.92
2023-01-17T17:08:43.395Z,24.08
2023-01-17T17:11:23.441Z,23.17
2023-01-17T17:13:51.626Z,23.27
2023-01-17T17:16:32.877Z,21.67
2023-01-17T17:19:06.698Z,23.88
2023-01-17T17:21:37.445Z,22.83
2023-01-17T17:24:04.946Z,23.42
2023-01-17T17:26:36.669Z,25.52
2023-01-17T17:29:07.134Z,23.08
2023-01-17T17:31:34.138Z,25.70
2023-01-17T17:34:02.644Z,26.65
2023-01-17T17:36:30.066Z,27.17
2023-01-17T17:38:58.605Z,28.85
2023-01-17T17:41:28.756Z,24.85
2023-01-17T17:43:56.199Z,27.48
2023-01-17T17:46:26.184Z,25.92
2023-01-17T17:48:53.739Z,25.88
2023-01-17T17:51:23.608Z,25.92
2023-01-17T17:53:52.964Z,27.83
2023-01-17T17:56:20.936Z,27.00
2023-01-17T17:58:50.699Z,22.58
2023-01-17T18:01:17.849Z,29.10
2023-01-17T18:03:46.084Z,25.58
2023-01-17T18:06:13.339Z,23.40
2023-01-17T18:08:40.191Z,22.95
2023-01-17T18:11:14.015Z,25.30
2023-01-17T18:13:42.887Z,26.55
2023-01-17T18:16:14.508Z,31.40
2023-01-17T18:18:45.925Z,31.63
2023-01-17T18:21:26.043Z,27.13
2023-01-17T18:23:58.692Z,24.15
2023-01-17T18:26:29.967Z,25.15
2023-01-17T18:28:59.093Z,23.77
2023-01-17T18:31:28.248Z,22.70
2023-01-17T18:33:58.107Z,29.08
2023-01-17T18:36:28.701Z,22.65
2023-01-17T18:38:56.330Z,24.15
2023-01-17T18:41:29.397Z,29.38
2023-01-17T18:43:57.058Z,29.10
2023-01-17T18:46:26.195Z,27.90
2023-01-17T18:48:57.167Z,26.70
2023-01-17T18:51:25.642Z,25.05
2023-01-17T18:53:53.057Z,25.23
2023-01-17T18:56:22.724Z,25.63
2023-01-17T18:58:50.898Z,23.48
2023-01-17T19:01:25.726Z,23.50
2023-01-17T19:03:57.892Z,25.30
2023-01-17T19:06:47.383Z,30.85
2023-01-17T19:09:16.519Z,41.47
2023-01-17T19:11:45.111Z,32.08
2023-01-17T19:14:12.922Z,34.85
2023-01-17T19:16:41.928Z,33.45
2023-01-17T19:19:13.687Z,30.85
2023-01-17T19:21:40.887Z,33.25
2023-01-17T19:24:10.558Z,34.50
2023-01-17T19:26:37.548Z,34.50
2023-01-17T19:29:05.285Z,35.75
2023-01-17T19:31:36.859Z,33.17
2023-01-17T19:34:03.935Z,35.15
2023-01-17T19:36:37.594Z,34.80
2023-01-17T19:39:09.257Z,35.20
2023-01-17T19:41:42.660Z,33.25
2023-01-17T19:44:12.247Z,40.23
2023-01-17T19:46:39.907Z,44.75
2023-01-17T19:49:08.840Z,41.88
2023-01-17T19:51:36.237Z,41.78
2023-01-17T19:54:04.281Z,42.58
2023-01-17T19:56:31.584Z,43.22
2023-01-17T19:59:01.679Z,43.40
2023-01-17T20:01:32.637Z,39.38
2023-01-17T20:04:02.844Z,37.35
2023-01-17T20:06:34.695Z,35.53
2023-01-17T20:09:03.367Z,37.58
2023-01-17T20:11:30.543Z,34.65
2023-01-17T20:13:59.785Z,33.90
2023-01-17T20:16:30.238Z,34.38
2023-01-17T20:18:59.443Z,31.48
2023-01-17T20:21:29.231Z,38.58
2023-01-17T20:23:58.580Z,30.67
2023-01-17T20:26:35.667Z,32.17
2023-01-17T20:29:11.322Z,27.20
2023-01-17T20:31:40.583Z,29.88
2023-01-17T20:34:10.820Z,30.52
2023-01-17T20:36:39.876Z,31.83
2023-01-17T20:39:08.592Z,34.22
2023-01-17T20:41:39.287Z,28.75
2023-01-17T20:44:10.456Z,31.38
2023-01-17T20:46:41.102Z,29.58
2023-01-17T20:49:17.082Z,30.20
2023-01-17T20:51:46.215Z,28.08
2023-01-17T20:54:16.452Z,30.70
2023-01-17T20:56:47.154Z,26.92
2023-01-17T20:59:17.849Z,25.50
2023-01-17T21:01:46.717Z,29.35
2023-01-17T21:04:14.915Z,31.48
2023-01-17T21:06:43.570Z,30.10
2023-01-17T21:09:15.326Z,31.40
2023-01-17T21:11:42.437Z,32.03
2023-01-17T21:14:09.689Z,30.20
2023-01-17T21:16:36.658Z,32.55
2023-01-17T21:19:04.648Z,33.33
2023-01-17T21:21:32.519Z,31.02
2023-01-17T21:23:59.872Z,27.48
2023-01-17T21:26:28.448Z,31.35
2023-01-17T21:28:56.083Z,33.40
2023-01-17T21:31:28.729Z,28.00
2023-01-17T21:33:59.613Z,32.95
2023-01-17T21:36:33.485Z,30.77
2023-01-17T21:39:04.805Z,28.02
2023-01-17T21:41:35.802Z,29.98
2023-01-17T21:44:08.012Z,34.72
2023-01-17T21:46:39.864Z,30.20
2023-01-17T21:49:10.712Z,29.92
2023-01-17T21:52:03.270Z,35.35
2023-01-17T21:54:55.752Z,35.72
2023-01-17T21:57:41.510Z,32.38
2023-01-17T22:00:15.655Z,36.38
2023-01-17T22:02:47.571Z,35.42
2023-01-17T22:05:16.883Z,32.63
2023-01-17T22:08:04.964Z,35.38
2023-01-17T22:10:32.563Z,36.97
2023-01-17T22:12:59.546Z,34.85
2023-01-17T22:15:26.644Z,37.47
2023-01-17T22:17:53.802Z,36.38
2023-01-17T22:20:21.511Z,40.28
2023-01-17T22:22:48.489Z,35.42
2023-01-17T22:25:15.642Z,40.88
2023-01-17T22:27:42.739Z,39.67
2023-01-17T22:30:13.040Z,43.70
2023-01-17T22:32:40.224Z,51.58
2023-01-17T22:35:08.320Z,51.88
2023-01-17T22:37:35.855Z,46.30
2023-01-17T22:40:04.998Z,48.22
2023-01-17T22:42:35.127Z,61.95
2023-01-17T22:45:02.281Z,50.60
2023-01-17T22:47:30.131Z,57.30
2023-01-17T22:49:57.465Z,52.20
2023-01-17T22:52:24.700Z,58.28
2023-01-17T22:54:51.942Z,61.85
2023-01-17T22:57:19.047Z,66.57
2023-01-17T22:59:45.986Z,66.85
2023-01-17T23:02:14.103Z,60.00
2023-01-17T23:04:42.976Z,66.28
2023-01-17T23:07:10.588Z,70.53
2023-01-17T23:09:37.617Z,70.35
2023-01-17T23:12:04.795Z,71.90
2023-01-17T23:14:53.213Z,72.53
2023-01-17T23:17:41.786Z,72.82
2023-01-17T23:20:11.889Z,78.32
2023-01-17T23:22:38.960Z,76.93
2023-01-17T23:25:12.666Z,71.40
2023-01-17T23:28:03.061Z,75.50
2023-01-17T23:30:37.496Z,84.65
2023-01-17T23:33:16.252Z,89.63
2023-01-17T23:35:46.148Z,90.65
2023-01-17T23:38:29.649Z,84.57
2023-01-17T23:41:33.271Z,87.57
2023-01-17T23:44:00.308Z,84.65
2023-01-17T23:46:30.122Z,82.03
2023-01-17T23:48:57.291Z,86.57
2023-01-17T23:51:24.183Z,90.05
2023-01-17T23:53:57.414Z,83.15
2023-01-17T23:56:24.966Z,84.43
2023-01-17T23:58:52.292Z,80.47
